createdAt,value
2018-09-05T00:00:05.500Z,22.51
2018-09-05T00:00:37.780Z,22.50
2018-09-05T00:01:09.972Z,22.49
2018-09-05T00:01:42.321Z,22.50
2018-09-05T00:02:14.466Z,22.51
2018-09-05T00:02:46.619Z,22.50
2018-09-05T00:03:18.879Z,22.52
2018-09-05T00:03:51.035Z,22.51
2018-09-05T00:04:23.161Z,22.51
2018-09-05T00:04:55.332Z,22.51
2018-09-05T00:05:27.452Z,22.50
2018-09-05T00:05:59.663Z,22.50
2018-09-05T00:06:31.802Z,22.50
2018-09-05T00:07:03.921Z,22.50
2018-09-05T00:07:36.089Z,22.51
2018-09-05T00:08:08.344Z,22.49
2018-09-05T00:08:40.692Z,22.47
2018-09-05T00:09:12.919Z,22.49
2018-09-05T00:09:45.076Z,22.48
2018-09-05T00:10:17.194Z,22.48
2018-09-05T00:10:49.523Z,22.49
2018-09-05T00:11:21.738Z,22.50
2018-09-05T00:11:53.967Z,22.50
2018-09-05T00:12:26.320Z,22.51
2018-09-05T00:12:58.574Z,22.51
2018-09-05T00:13:30.833Z,22.50
2018-09-05T00:14:02.994Z,22.51
2018-09-05T00:14:35.135Z,22.51
2018-09-05T00:15:07.442Z,22.51
2018-09-05T00:15:39.547Z,22.51
2018-09-05T00:16:11.907Z,22.50
2018-09-05T00:16:44.198Z,22.51
2018-09-05T00:17:16.365Z,22.52
2018-09-05T00:17:48.574Z,22.50
2018-09-05T00:18:20.691Z,22.51
2018-09-05T00:18:53.085Z,22.50
2018-09-05T00:19:25.284Z,22.50
2018-09-05T00:19:57.395Z,22.51
2018-09-05T00:20:29.528Z,22.50
2018-09-05T00:21:01.647Z,22.49
2018-09-05T00:21:33.899Z,22.49
2018-09-05T00:22:06.219Z,22.48
2018-09-05T00:22:38.355Z,22.49
2018-09-05T00:23:10.597Z,22.50
2018-09-05T00:23:42.729Z,22.52
2018-09-05T00:24:14.935Z,22.50
2018-09-05T00:24:47.108Z,22.51
2018-09-05T00:25:19.246Z,22.51
2018-09-05T00:25:51.496Z,22.50
2018-09-05T00:26:23.649Z,22.50
2018-09-05T00:26:55.917Z,22.50
2018-09-05T00:27:28.226Z,22.48
2018-09-05T00:28:00.370Z,22.48
2018-09-05T00:28:32.516Z,22.48
2018-09-05T00:29:04.648Z,22.47
2018-09-05T00:29:36.778Z,22.47
2018-09-05T00:30:08.971Z,22.47
2018-09-05T00:30:41.174Z,22.47
2018-09-05T00:31:13.296Z,22.49
2018-09-05T00:31:45.601Z,22.50
2018-09-05T00:32:17.855Z,22.48
2018-09-05T00:32:50.146Z,22.48
2018-09-05T00:33:22.474Z,22.48
2018-09-05T00:33:54.608Z,22.48
2018-09-05T00:34:26.718Z,22.50
2018-09-05T00:34:58.935Z,22.51
2018-09-05T00:35:31.191Z,22.49
2018-09-05T00:36:03.325Z,22.50
2018-09-05T00:36:35.462Z,22.50
2018-09-05T00:37:07.730Z,22.50
2018-09-05T00:37:39.870Z,22.47
2018-09-05T00:38:12.020Z,22.47
2018-09-05T00:38:44.324Z,22.48
2018-09-05T00:39:16.540Z,22.48
2018-09-05T00:39:48.706Z,22.47
2018-09-05T00:40:20.904Z,22.49
2018-09-05T00:40:53.243Z,22.48
2018-09-05T00:41:25.353Z,22.49
2018-09-05T00:41:57.596Z,22.48
2018-09-05T00:42:29.873Z,22.48
2018-09-05T00:43:02.169Z,22.47
2018-09-05T00:43:34.599Z,22.47
2018-09-05T00:44:06.799Z,22.47
2018-09-05T00:44:39.098Z,22.46
2018-09-05T00:45:11.225Z,22.47
2018-09-05T00:45:43.341Z,22.48
2018-09-05T00:46:15.625Z,22.48
2018-09-05T00:46:47.749Z,22.48
2018-09-05T00:47:19.857Z,22.50
2018-09-05T00:47:52.067Z,22.48
2018-09-05T00:48:24.198Z,22.47
2018-09-05T00:48:56.348Z,22.48
2018-09-05T00:49:28.602Z,22.46
2018-09-05T00:50:00.932Z,22.46
2018-09-05T00:50:33.070Z,22.47
2018-09-05T00:51:05.210Z,22.47
2018-09-05T00:51:37.599Z,22.47
2018-09-05T00:52:09.753Z,22.48
2018-09-05T00:52:41.899Z,22.47
2018-09-05T00:53:14.294Z,22.48
2018-09-05T00:53:46.476Z,22.47
2018-09-05T00:54:18.836Z,22.47
2018-09-05T00:54:51.326Z,22.47
2018-09-05T00:55:23.491Z,22.46
2018-09-05T00:55:55.706Z,22.47
2018-09-05T00:56:27.866Z,22.46
2018-09-05T00:56:59.993Z,22.46
2018-09-05T00:57:32.166Z,22.46
2018-09-05T00:58:04.328Z,22.46
2018-09-05T00:58:36.618Z,22.46
2018-09-05T00:59:08.785Z,22.46
2018-09-05T00:59:40.885Z,22.44
2018-09-05T01:00:13.032Z,22.44
2018-09-05T01:00:45.275Z,22.45
2018-09-05T01:01:17.414Z,22.45
2018-09-05T01:01:49.563Z,22.46
2018-09-05T01:02:21.862Z,22.46
2018-09-05T01:02:54.098Z,22.46
2018-09-05T01:03:26.315Z,22.45
2018-09-05T01:03:58.630Z,22.46
2018-09-05T01:04:30.885Z,22.46
2018-09-05T01:05:03.023Z,22.44
2018-09-05T01:05:35.206Z,22.45
2018-09-05T01:06:07.449Z,22.45
2018-09-05T01:06:39.667Z,22.45
2018-09-05T01:07:11.814Z,22.46
2018-09-05T01:07:44.014Z,22.46
2018-09-05T01:08:16.134Z,22.45
2018-09-05T01:08:48.305Z,22.46
2018-09-05T01:09:20.437Z,22.44
2018-09-05T01:09:52.597Z,22.44
2018-09-05T01:10:24.718Z,22.44
2018-09-05T01:10:56.919Z,22.45
2018-09-05T01:11:29.063Z,22.45
2018-09-05T01:12:01.256Z,22.45
2018-09-05T01:12:33.449Z,22.45
2018-09-05T01:13:05.706Z,22.45
2018-09-05T01:13:38.093Z,22.46
2018-09-05T01:14:10.477Z,22.46
2018-09-05T01:14:42.702Z,22.44
2018-09-05T01:15:14.859Z,22.46
2018-09-05T01:15:47.220Z,22.45
2018-09-05T01:16:19.481Z,22.45
2018-09-05T01:16:51.658Z,22.45
2018-09-05T01:17:23.801Z,22.44
2018-09-05T01:17:55.968Z,22.45
2018-09-05T01:18:28.107Z,22.44
2018-09-05T01:19:00.281Z,22.43
2018-09-05T01:19:32.502Z,22.46
2018-09-05T01:20:04.660Z,22.44
2018-09-05T01:20:36.801Z,22.44
2018-09-05T01:21:08.997Z,22.43
2018-09-05T01:21:41.113Z,22.44
2018-09-05T01:22:13.221Z,22.44
2018-09-05T01:22:45.601Z,22.44
2018-09-05T01:23:17.746Z,22.44
2018-09-05T01:23:49.887Z,22.44
2018-09-05T01:24:22.116Z,22.44
2018-09-05T01:24:54.210Z,22.44
2018-09-05T01:25:26.338Z,22.42
2018-09-05T01:25:58.590Z,22.42
2018-09-05T01:26:30.737Z,22.42
2018-09-05T01:27:02.995Z,22.43
2018-09-05T01:27:35.155Z,22.44
2018-09-05T01:28:07.303Z,22.44
2018-09-05T01:28:39.449Z,22.44
2018-09-05T01:29:11.716Z,22.44
2018-09-05T01:29:43.863Z,22.43
2018-09-05T01:30:16.007Z,22.42
2018-09-05T01:30:48.149Z,22.42
2018-09-05T01:31:20.266Z,22.42
2018-09-05T01:31:52.447Z,22.42
2018-09-05T01:32:24.818Z,22.42
2018-09-05T01:32:56.967Z,22.43
2018-09-05T01:33:29.146Z,22.43
2018-09-05T01:34:01.446Z,22.43
2018-09-05T01:34:33.945Z,22.43
2018-09-05T01:35:06.198Z,22.43
2018-09-05T01:35:38.348Z,22.43
2018-09-05T01:36:10.509Z,22.43
2018-09-05T01:36:42.664Z,22.43
2018-09-05T01:37:15.046Z,22.42
2018-09-05T01:37:47.301Z,22.43
2018-09-05T01:38:19.532Z,22.44
2018-09-05T01:38:51.679Z,22.42
2018-09-05T01:39:23.814Z,22.42
2018-09-05T01:39:55.989Z,22.41
2018-09-05T01:40:28.100Z,22.41
2018-09-05T01:41:00.408Z,22.43
2018-09-05T01:41:32.534Z,22.42
2018-09-05T01:42:04.640Z,22.42
2018-09-05T01:42:36.792Z,22.41
2018-09-05T01:43:08.950Z,22.42
2018-09-05T01:43:41.177Z,22.43
2018-09-05T01:44:13.296Z,22.43
2018-09-05T01:44:45.423Z,22.42
2018-09-05T01:45:17.577Z,22.42
2018-09-05T01:45:49.922Z,22.42
2018-09-05T01:46:22.031Z,22.43
2018-09-05T01:46:54.614Z,22.42
2018-09-05T01:47:26.791Z,22.42
2018-09-05T01:47:59.025Z,22.42
2018-09-05T01:48:31.206Z,22.42
2018-09-05T01:49:03.325Z,22.41
2018-09-05T01:49:35.671Z,22.41
2018-09-05T01:50:07.815Z,22.42
2018-09-05T01:50:39.953Z,22.41
2018-09-05T01:51:12.109Z,22.41
2018-09-05T01:51:44.329Z,22.41
2018-09-05T01:52:16.486Z,22.40
2018-09-05T01:52:48.740Z,22.40
2018-09-05T01:53:20.878Z,22.41
2018-09-05T01:53:53.118Z,22.41
2018-09-05T01:54:25.407Z,22.41
2018-09-05T01:54:57.669Z,22.40
2018-09-05T01:55:29.811Z,22.41
2018-09-05T01:56:02.042Z,22.40
2018-09-05T01:56:34.228Z,22.40
2018-09-05T01:57:06.369Z,22.40
2018-09-05T01:57:38.495Z,22.41
2018-09-05T01:58:10.669Z,22.42
2018-09-05T01:58:42.948Z,22.41
2018-09-05T01:59:15.344Z,22.41
2018-09-05T01:59:47.481Z,22.42
2018-09-05T02:00:19.628Z,22.40
2018-09-05T02:00:51.871Z,22.42
2018-09-05T02:01:24.126Z,22.41
2018-09-05T02:01:56.358Z,22.41
2018-09-05T02:02:28.637Z,22.41
2018-09-05T02:03:00.749Z,22.41
2018-09-05T02:03:32.926Z,22.42
2018-09-05T02:04:05.346Z,22.42
2018-09-05T02:04:37.736Z,22.42
2018-09-05T02:05:09.889Z,22.41
2018-09-05T02:05:42.018Z,22.41
2018-09-05T02:06:14.178Z,22.42
2018-09-05T02:06:46.458Z,22.42
2018-09-05T02:07:18.633Z,22.41
2018-09-05T02:07:50.897Z,22.41
2018-09-05T02:08:23.274Z,22.41
2018-09-05T02:08:55.614Z,22.40
2018-09-05T02:09:27.830Z,22.40
2018-09-05T02:09:59.980Z,22.40
2018-09-05T02:10:32.279Z,22.40
2018-09-05T02:11:04.457Z,22.39
2018-09-05T02:11:36.596Z,22.39
2018-09-05T02:12:08.712Z,22.39
2018-09-05T02:12:40.872Z,22.38
2018-09-05T02:13:13.023Z,22.38
2018-09-05T02:13:45.235Z,22.37
2018-09-05T02:14:17.426Z,22.38
2018-09-05T02:14:49.514Z,22.38
2018-09-05T02:15:21.841Z,22.38
2018-09-05T02:15:54.007Z,22.39
2018-09-05T02:16:26.142Z,22.40
2018-09-05T02:16:58.315Z,22.39
2018-09-05T02:17:30.622Z,22.38
2018-09-05T02:18:02.734Z,22.38
2018-09-05T02:18:35.038Z,22.38
2018-09-05T02:19:07.215Z,22.39
2018-09-05T02:19:39.415Z,22.39
2018-09-05T02:20:11.554Z,22.38
2018-09-05T02:20:43.853Z,22.38
2018-09-05T02:21:16.033Z,22.38
2018-09-05T02:21:48.261Z,22.40
2018-09-05T02:22:20.379Z,22.39
2018-09-05T02:22:52.706Z,22.38
2018-09-05T02:23:24.938Z,22.38
2018-09-05T02:23:57.041Z,22.39
2018-09-05T02:24:29.157Z,22.38
2018-09-05T02:25:01.302Z,22.38
2018-09-05T02:25:33.418Z,22.39
2018-09-05T02:26:05.973Z,22.40
2018-09-05T02:26:38.110Z,22.39
2018-09-05T02:27:10.487Z,22.38
2018-09-05T02:27:42.848Z,22.38
2018-09-05T02:28:14.998Z,22.37
2018-09-05T02:28:47.129Z,22.37
2018-09-05T02:29:19.244Z,22.36
2018-09-05T02:29:51.707Z,22.36
2018-09-05T02:30:23.794Z,22.36
2018-09-05T02:30:55.973Z,22.36
2018-09-05T02:31:28.116Z,22.37
2018-09-05T02:32:00.254Z,22.38
2018-09-05T02:32:32.383Z,22.37
2018-09-05T02:33:04.538Z,22.37
2018-09-05T02:33:36.654Z,22.39
2018-09-05T02:34:08.863Z,22.37
2018-09-05T02:34:40.973Z,22.37
2018-09-05T02:35:13.063Z,22.37
2018-09-05T02:35:45.189Z,22.37
2018-09-05T02:36:17.515Z,22.37
2018-09-05T02:36:49.872Z,22.35
2018-09-05T02:37:21.989Z,22.36
2018-09-05T02:37:54.286Z,22.35
2018-09-05T02:38:26.422Z,22.36
2018-09-05T02:38:58.693Z,22.36
2018-09-05T02:39:30.794Z,22.36
2018-09-05T02:40:02.974Z,22.35
2018-09-05T02:40:35.186Z,22.36
2018-09-05T02:41:07.243Z,22.34
2018-09-05T02:41:39.453Z,22.36
2018-09-05T02:42:11.664Z,22.35
2018-09-05T02:42:43.830Z,22.37
2018-09-05T02:43:16.056Z,22.37
2018-09-05T02:43:48.154Z,22.37
2018-09-05T02:44:20.247Z,22.37
2018-09-05T02:44:52.578Z,22.37
2018-09-05T02:45:24.741Z,22.36
2018-09-05T02:45:56.858Z,22.35
2018-09-05T02:46:29.055Z,22.35
2018-09-05T02:47:01.127Z,22.35
2018-09-05T02:47:33.270Z,22.35
2018-09-05T02:48:05.424Z,22.35
2018-09-05T02:48:37.770Z,22.34
2018-09-05T02:49:09.906Z,22.36
2018-09-05T02:49:42.283Z,22.36
2018-09-05T02:50:14.619Z,22.34
2018-09-05T02:50:46.730Z,22.34
2018-09-05T02:51:18.849Z,22.36
2018-09-05T02:51:50.997Z,22.35
2018-09-05T02:52:23.137Z,22.34
2018-09-05T02:52:55.325Z,22.34
2018-09-05T02:53:27.427Z,22.35
2018-09-05T02:53:59.689Z,22.36
2018-09-05T02:54:31.859Z,22.35
2018-09-05T02:55:03.995Z,22.36
2018-09-05T02:55:36.136Z,22.37
2018-09-05T02:56:08.268Z,22.36
2018-09-05T02:56:40.454Z,22.36
2018-09-05T02:57:12.744Z,22.37
2018-09-05T02:57:45.103Z,22.35
2018-09-05T02:58:17.282Z,22.35
2018-09-05T02:58:49.439Z,22.34
2018-09-05T02:59:21.693Z,22.32
2018-09-05T02:59:53.828Z,22.34
2018-09-05T03:00:25.924Z,22.34
2018-09-05T03:00:58.208Z,22.35
2018-09-05T03:01:30.390Z,22.35
2018-09-05T03:02:02.666Z,22.35
2018-09-05T03:02:34.964Z,22.34
2018-09-05T03:03:07.065Z,22.32
2018-09-05T03:03:39.214Z,22.33
2018-09-05T03:04:11.566Z,22.32
2018-09-05T03:04:43.927Z,22.33
2018-09-05T03:05:16.068Z,22.32
2018-09-05T03:05:48.304Z,22.32
2018-09-05T03:06:20.492Z,22.32
2018-09-05T03:06:52.709Z,22.33
2018-09-05T03:07:24.925Z,22.35
2018-09-05T03:07:57.182Z,22.34
2018-09-05T03:08:29.273Z,22.32
2018-09-05T03:09:01.530Z,22.33
2018-09-05T03:09:33.641Z,22.33
2018-09-05T03:10:05.840Z,22.33
2018-09-05T03:10:37.975Z,22.33
2018-09-05T03:11:10.253Z,22.33
2018-09-05T03:11:42.373Z,22.34
2018-09-05T03:12:14.505Z,22.32
2018-09-05T03:12:46.710Z,22.32
2018-09-05T03:13:18.861Z,22.32
2018-09-05T03:13:51.058Z,22.33
2018-09-05T03:14:23.150Z,22.33
2018-09-05T03:14:55.433Z,22.33
2018-09-05T03:15:27.627Z,22.34
2018-09-05T03:15:59.756Z,22.32
2018-09-05T03:16:31.905Z,22.33
2018-09-05T03:17:04.124Z,22.33
2018-09-05T03:17:36.241Z,22.33
2018-09-05T03:18:08.372Z,22.33
2018-09-05T03:18:40.469Z,22.32
2018-09-05T03:19:12.656Z,22.33
2018-09-05T03:19:44.768Z,22.33
2018-09-05T03:20:17.224Z,22.33
2018-09-05T03:20:49.430Z,22.33
2018-09-05T03:21:21.549Z,22.34
2018-09-05T03:21:53.695Z,22.34
2018-09-05T03:22:25.799Z,22.34
2018-09-05T03:22:57.902Z,22.33
2018-09-05T03:23:30.033Z,22.33
2018-09-05T03:24:02.171Z,22.31
2018-09-05T03:24:34.266Z,22.31
2018-09-05T03:25:06.393Z,22.30
2018-09-05T03:25:38.525Z,22.32
2018-09-05T03:26:10.767Z,22.30
2018-09-05T03:26:42.929Z,22.31
2018-09-05T03:27:15.074Z,22.32
2018-09-05T03:27:47.223Z,22.32
2018-09-05T03:28:19.353Z,22.31
2018-09-05T03:28:51.464Z,22.31
2018-09-05T03:29:23.562Z,22.32
2018-09-05T03:29:55.753Z,22.32
2018-09-05T03:30:28.029Z,22.32
2018-09-05T03:31:00.340Z,22.31
2018-09-05T03:31:32.447Z,22.32
2018-09-05T03:32:04.597Z,22.32
2018-09-05T03:32:36.773Z,22.31
2018-09-05T03:33:08.928Z,22.31
2018-09-05T03:33:41.062Z,22.31
2018-09-05T03:34:13.165Z,22.31
2018-09-05T03:34:45.333Z,22.30
2018-09-05T03:35:17.439Z,22.30
2018-09-05T03:35:49.589Z,22.28
2018-09-05T03:36:21.716Z,22.29
2018-09-05T03:36:53.800Z,22.29
2018-09-05T03:37:26.139Z,22.30
2018-09-05T03:37:58.212Z,22.29
2018-09-05T03:38:30.417Z,22.31
2018-09-05T03:39:02.510Z,22.30
2018-09-05T03:39:34.657Z,22.31
2018-09-05T03:40:06.834Z,22.31
2018-09-05T03:40:38.958Z,22.32
2018-09-05T03:41:11.113Z,22.30
2018-09-05T03:41:43.202Z,22.30
2018-09-05T03:42:15.327Z,22.30
2018-09-05T03:42:47.488Z,22.29
2018-09-05T03:43:19.560Z,22.29
2018-09-05T03:43:51.742Z,22.31
2018-09-05T03:44:23.838Z,22.31
2018-09-05T03:44:55.970Z,22.31
2018-09-05T03:45:28.082Z,22.30
2018-09-05T03:46:00.198Z,22.30
2018-09-05T03:46:32.321Z,22.31
2018-09-05T03:47:04.572Z,22.29
2018-09-05T03:47:36.676Z,22.29
2018-09-05T03:48:08.786Z,22.29
2018-09-05T03:48:40.909Z,22.27
2018-09-05T03:49:13.060Z,22.29
2018-09-05T03:49:45.340Z,22.27
2018-09-05T03:50:17.404Z,22.30
2018-09-05T03:50:49.652Z,22.28
2018-09-05T03:51:21.847Z,22.26
2018-09-05T03:51:54.000Z,22.28
2018-09-05T03:52:26.110Z,22.29
2018-09-05T03:52:58.225Z,22.28
2018-09-05T03:53:30.322Z,22.28
2018-09-05T03:54:02.438Z,22.28
2018-09-05T03:54:34.760Z,22.25
2018-09-05T03:55:06.854Z,22.26
2018-09-05T03:55:39.012Z,22.27
2018-09-05T03:56:11.286Z,22.28
2018-09-05T03:56:43.425Z,22.28
2018-09-05T03:57:15.606Z,22.29
2018-09-05T03:57:47.813Z,22.30
2018-09-05T03:58:20.149Z,22.29
2018-09-05T03:58:52.326Z,22.29
2018-09-05T03:59:24.574Z,22.29
2018-09-05T03:59:56.774Z,22.28
2018-09-05T04:00:29.035Z,22.27
2018-09-05T04:01:01.194Z,22.28
2018-09-05T04:01:33.491Z,22.26
2018-09-05T04:02:05.837Z,22.25
2018-09-05T04:02:37.918Z,22.27
2018-09-05T04:03:10.043Z,22.26
2018-09-05T04:03:42.201Z,22.25
2018-09-05T04:04:14.374Z,22.25
2018-09-05T04:04:46.493Z,22.26
2018-09-05T04:05:18.606Z,22.26
2018-09-05T04:05:50.847Z,22.25
2018-09-05T04:06:23.118Z,22.25
2018-09-05T04:06:55.503Z,22.27
2018-09-05T04:07:27.650Z,22.25
2018-09-05T04:07:59.904Z,22.25
2018-09-05T04:08:32.118Z,22.26
2018-09-05T04:09:04.282Z,22.25
2018-09-05T04:09:36.389Z,22.26
2018-09-05T04:10:08.511Z,22.27
2018-09-05T04:10:40.779Z,22.25
2018-09-05T04:11:12.969Z,22.26
2018-09-05T04:11:45.230Z,22.25
2018-09-05T04:12:17.461Z,22.26
2018-09-05T04:12:49.710Z,22.26
2018-09-05T04:13:21.974Z,22.25
2018-09-05T04:13:54.104Z,22.25
2018-09-05T04:14:26.265Z,22.24
2018-09-05T04:14:58.617Z,22.25
2018-09-05T04:15:30.915Z,22.27
2018-09-05T04:16:03.173Z,22.27
2018-09-05T04:16:35.309Z,22.26
2018-09-05T04:17:07.550Z,22.26
2018-09-05T04:17:39.702Z,22.26
2018-09-05T04:18:11.785Z,22.26
2018-09-05T04:18:44.073Z,22.26
2018-09-05T04:19:16.185Z,22.26
2018-09-05T04:19:48.318Z,22.25
2018-09-05T04:20:20.509Z,22.26
2018-09-05T04:20:52.584Z,22.26
2018-09-05T04:21:24.783Z,22.29
2018-09-05T04:21:56.959Z,22.27
2018-09-05T04:22:29.228Z,22.27
2018-09-05T04:23:01.310Z,22.26
2018-09-05T04:23:33.589Z,22.26
2018-09-05T04:24:05.715Z,22.24
2018-09-05T04:24:37.881Z,22.27
2018-09-05T04:25:10.040Z,22.25
2018-09-05T04:25:42.139Z,22.25
2018-09-05T04:26:14.231Z,22.25
2018-09-05T04:26:46.391Z,22.25
2018-09-05T04:27:18.664Z,22.25
2018-09-05T04:27:50.791Z,22.25
2018-09-05T04:28:22.881Z,22.25
2018-09-05T04:28:55.036Z,22.24
2018-09-05T04:29:27.177Z,22.25
2018-09-05T04:29:59.270Z,22.25
2018-09-05T04:30:31.395Z,22.26
2018-09-05T04:31:03.536Z,22.24
2018-09-05T04:31:35.651Z,22.25
2018-09-05T04:32:07.721Z,22.24
2018-09-05T04:32:39.830Z,22.23
2018-09-05T04:33:11.950Z,22.25
2018-09-05T04:33:44.073Z,22.26
2018-09-05T04:34:16.239Z,22.23
2018-09-05T04:34:48.526Z,22.24
2018-09-05T04:35:20.648Z,22.25
2018-09-05T04:35:52.759Z,22.25
2018-09-05T04:36:24.891Z,22.26
2018-09-05T04:36:57.032Z,22.25
2018-09-05T04:37:29.193Z,22.25
2018-09-05T04:38:01.451Z,22.23
2018-09-05T04:38:33.522Z,22.23
2018-09-05T04:39:05.668Z,22.24
2018-09-05T04:39:37.916Z,22.25
2018-09-05T04:40:10.557Z,22.25
2018-09-05T04:40:42.873Z,22.26
2018-09-05T04:41:15.188Z,22.25
2018-09-05T04:41:47.338Z,22.26
2018-09-05T04:42:19.454Z,22.26
2018-09-05T04:42:51.675Z,22.26
2018-09-05T04:43:23.926Z,22.26
2018-09-05T04:43:56.077Z,22.25
2018-09-05T04:44:28.174Z,22.25
2018-09-05T04:45:00.356Z,22.25
2018-09-05T04:45:32.769Z,22.23
2018-09-05T04:46:04.880Z,22.24
2018-09-05T04:46:36.998Z,22.25
2018-09-05T04:47:09.109Z,22.24
2018-09-05T04:47:41.217Z,22.25
2018-09-05T04:48:13.459Z,22.25
2018-09-05T04:48:45.691Z,22.24
2018-09-05T04:49:17.772Z,22.23
2018-09-05T04:49:49.892Z,22.23
2018-09-05T04:50:21.998Z,22.23
2018-09-05T04:50:54.270Z,22.24
2018-09-05T04:51:26.530Z,22.22
2018-09-05T04:51:58.678Z,22.24
2018-09-05T04:52:30.819Z,22.24
2018-09-05T04:53:02.985Z,22.24
2018-09-05T04:53:35.069Z,22.24
2018-09-05T04:54:07.408Z,22.24
2018-09-05T04:54:39.694Z,22.22
2018-09-05T04:55:11.810Z,22.24
2018-09-05T04:55:44.221Z,22.24
2018-09-05T04:56:16.408Z,22.25
2018-09-05T04:56:48.686Z,22.25
2018-09-05T04:57:20.849Z,22.25
2018-09-05T04:57:53.028Z,22.24
2018-09-05T04:58:25.184Z,22.24
2018-09-05T04:58:57.268Z,22.24
2018-09-05T04:59:29.396Z,22.24
2018-09-05T05:00:01.625Z,22.25
2018-09-05T05:00:33.767Z,22.24
2018-09-05T05:01:05.859Z,22.25
2018-09-05T05:01:38.202Z,22.25
2018-09-05T05:02:10.314Z,22.25
2018-09-05T05:02:42.549Z,22.23
2018-09-05T05:03:14.842Z,22.22
2018-09-05T05:03:46.946Z,22.21
2018-09-05T05:04:19.124Z,22.22
2018-09-05T05:04:51.219Z,22.23
2018-09-05T05:05:23.427Z,22.22
2018-09-05T05:05:55.506Z,22.24
2018-09-05T05:06:27.629Z,22.26
2018-09-05T05:06:59.774Z,22.26
2018-09-05T05:07:32.118Z,22.25
2018-09-05T05:08:04.316Z,22.26
2018-09-05T05:08:36.431Z,22.25
2018-09-05T05:09:08.557Z,22.25
2018-09-05T05:09:40.688Z,22.24
2018-09-05T05:10:12.848Z,22.24
2018-09-05T05:10:44.968Z,22.25
2018-09-05T05:11:17.066Z,22.26
2018-09-05T05:11:49.444Z,22.24
2018-09-05T05:12:21.592Z,22.26
2018-09-05T05:12:53.878Z,22.23
2018-09-05T05:13:25.977Z,22.23
2018-09-05T05:13:58.368Z,22.23
2018-09-05T05:14:30.588Z,22.23
2018-09-05T05:15:02.764Z,22.26
2018-09-05T05:15:34.930Z,22.27
2018-09-05T05:16:07.041Z,22.26
2018-09-05T05:16:39.163Z,22.27
2018-09-05T05:17:11.339Z,22.27
2018-09-05T05:17:43.483Z,22.27
2018-09-05T05:18:15.597Z,22.26
2018-09-05T05:18:47.957Z,22.27
2018-09-05T05:19:20.051Z,22.26
2018-09-05T05:19:52.200Z,22.28
2018-09-05T05:20:24.323Z,22.28
2018-09-05T05:20:56.433Z,22.26
2018-09-05T05:21:28.553Z,22.25
2018-09-05T05:22:00.774Z,22.26
2018-09-05T05:22:32.939Z,22.25
2018-09-05T05:23:05.063Z,22.29
2018-09-05T05:23:37.245Z,22.29
2018-09-05T05:24:09.348Z,22.31
2018-09-05T05:24:41.492Z,22.30
2018-09-05T05:25:13.633Z,22.30
2018-09-05T05:25:45.770Z,22.28
2018-09-05T05:26:17.942Z,22.28
2018-09-05T05:26:50.148Z,22.26
2018-09-05T05:27:22.385Z,22.28
2018-09-05T05:27:54.523Z,22.25
2018-09-05T05:28:26.648Z,22.22
2018-09-05T05:28:58.883Z,22.22
2018-09-05T05:29:30.988Z,22.21
2018-09-05T05:30:03.119Z,22.21
2018-09-05T05:30:35.214Z,22.20
2018-09-05T05:31:07.467Z,22.21
2018-09-05T05:31:39.765Z,22.23
2018-09-05T05:32:11.863Z,22.24
2018-09-05T05:32:44.039Z,22.28
2018-09-05T05:33:16.295Z,22.30
2018-09-05T05:33:48.395Z,22.34
2018-09-05T05:34:20.529Z,22.35
2018-09-05T05:34:52.622Z,22.33
2018-09-05T05:35:24.747Z,22.32
2018-09-05T05:35:56.882Z,22.31
2018-09-05T05:36:29.043Z,22.31
2018-09-05T05:37:01.122Z,22.29
2018-09-05T05:37:33.254Z,22.31
2018-09-05T05:38:05.400Z,22.31
2018-09-05T05:38:37.467Z,22.32
2018-09-05T05:39:09.791Z,22.34
2018-09-05T05:39:41.894Z,22.32
2018-09-05T05:40:14.097Z,22.32
2018-09-05T05:40:46.159Z,22.31
2018-09-05T05:41:18.346Z,22.30
2018-09-05T05:41:50.746Z,22.28
2018-09-05T05:42:22.896Z,22.27
2018-09-05T05:42:55.024Z,22.28
2018-09-05T05:43:27.272Z,22.29
2018-09-05T05:43:59.368Z,22.29
2018-09-05T05:44:31.507Z,22.28
2018-09-05T05:45:03.624Z,22.28
2018-09-05T05:45:35.712Z,22.28
2018-09-05T05:46:07.858Z,22.28
2018-09-05T05:46:40.109Z,22.26
2018-09-05T05:47:12.251Z,22.25
2018-09-05T05:47:44.351Z,22.29
2018-09-05T05:48:16.567Z,22.29
2018-09-05T05:48:48.752Z,22.29
2018-09-05T05:49:20.882Z,22.28
2018-09-05T05:49:53.009Z,22.26
2018-09-05T05:50:25.132Z,22.25
2018-09-05T05:50:57.281Z,22.27
2018-09-05T05:51:29.393Z,22.28
2018-09-05T05:52:01.512Z,22.29
2018-09-05T05:52:33.655Z,22.29
2018-09-05T05:53:05.765Z,22.28
2018-09-05T05:53:37.907Z,22.32
2018-09-05T05:54:10.051Z,22.31
2018-09-05T05:54:42.154Z,22.31
2018-09-05T05:55:14.476Z,22.30
2018-09-05T05:55:46.651Z,22.26
2018-09-05T05:56:18.785Z,22.28
2018-09-05T05:56:50.919Z,22.26
2018-09-05T05:57:23.018Z,22.26
2018-09-05T05:57:55.131Z,22.26
2018-09-05T05:58:27.258Z,22.28
2018-09-05T05:58:59.381Z,22.28
2018-09-05T05:59:31.766Z,22.29
2018-09-05T06:00:03.889Z,22.28
2018-09-05T06:00:35.997Z,22.25
2018-09-05T06:01:08.248Z,22.26
2018-09-05T06:01:40.331Z,22.25
2018-09-05T06:02:12.782Z,22.26
2018-09-05T06:02:44.883Z,22.27
2018-09-05T06:03:17.346Z,22.28
2018-09-05T06:03:49.506Z,22.29
2018-09-05T06:04:21.659Z,22.29
2018-09-05T06:04:53.782Z,22.28
2018-09-05T06:05:26.073Z,22.28
2018-09-05T06:05:58.264Z,22.29
2018-09-05T06:06:30.410Z,22.27
2018-09-05T06:07:02.533Z,22.27
2018-09-05T06:07:34.646Z,22.28
2018-09-05T06:08:06.765Z,22.28
2018-09-05T06:08:38.879Z,22.26
2018-09-05T06:09:11.118Z,22.25
2018-09-05T06:09:43.454Z,22.26
2018-09-05T06:10:15.574Z,22.27
2018-09-05T06:10:47.702Z,22.26
2018-09-05T06:11:20.142Z,22.27
2018-09-05T06:11:52.340Z,22.26
2018-09-05T06:12:24.417Z,22.28
2018-09-05T06:12:56.758Z,22.26
2018-09-05T06:13:28.995Z,22.29
2018-09-05T06:14:01.101Z,22.27
2018-09-05T06:14:33.371Z,22.27
2018-09-05T06:15:05.663Z,22.29
2018-09-05T06:15:37.752Z,22.28
2018-09-05T06:16:09.839Z,22.29
2018-09-05T06:16:41.950Z,22.28
2018-09-05T06:17:14.373Z,22.28
2018-09-05T06:17:46.643Z,22.28
2018-09-05T06:18:18.730Z,22.30
2018-09-05T06:18:50.869Z,22.31
2018-09-05T06:19:22.964Z,22.32
2018-09-05T06:19:55.135Z,22.33
2018-09-05T06:20:27.251Z,22.31
2018-09-05T06:20:59.463Z,22.32
2018-09-05T06:21:31.608Z,22.30
2018-09-05T06:22:03.718Z,22.32
2018-09-05T06:22:35.852Z,22.31
2018-09-05T06:23:08.019Z,22.32
2018-09-05T06:23:40.262Z,22.31
2018-09-05T06:24:12.375Z,22.30
2018-09-05T06:24:44.478Z,22.31
2018-09-05T06:25:16.590Z,22.31
2018-09-05T06:25:48.906Z,22.32
2018-09-05T06:26:21.079Z,22.31
2018-09-05T06:26:53.189Z,22.30
2018-09-05T06:27:25.408Z,22.31
2018-09-05T06:27:57.620Z,22.31
2018-09-05T06:28:29.928Z,22.32
2018-09-05T06:29:02.289Z,22.31
2018-09-05T06:29:34.468Z,22.32
2018-09-05T06:30:06.595Z,22.32
2018-09-05T06:30:38.954Z,22.33
2018-09-05T06:31:11.139Z,22.33
2018-09-05T06:31:43.112Z,22.32
2018-09-05T06:32:15.378Z,22.34
2018-09-05T06:32:47.627Z,22.33
2018-09-05T06:33:19.721Z,22.33
2018-09-05T06:33:51.810Z,22.33
2018-09-05T06:34:23.975Z,22.31
2018-09-05T06:34:56.166Z,22.32
2018-09-05T06:35:28.604Z,22.33
2018-09-05T06:36:00.710Z,22.34
2018-09-05T06:36:33.118Z,22.34
2018-09-05T06:37:05.229Z,22.33
2018-09-05T06:37:37.568Z,22.34
2018-09-05T06:38:09.722Z,22.34
2018-09-05T06:38:41.947Z,22.35
2018-09-05T06:39:14.239Z,22.34
2018-09-05T06:39:46.533Z,22.33
2018-09-05T06:40:18.645Z,22.33
2018-09-05T06:40:50.815Z,22.33
2018-09-05T06:41:23.122Z,22.32
2018-09-05T06:41:55.226Z,22.35
2018-09-05T06:42:27.422Z,22.34
2018-09-05T06:43:00.271Z,22.35
2018-09-05T06:43:34.073Z,22.34
2018-09-05T06:44:06.482Z,22.34
2018-09-05T06:44:38.828Z,22.34
2018-09-05T06:45:11.057Z,22.34
2018-09-05T06:45:43.052Z,22.34
2018-09-05T06:46:15.357Z,22.34
2018-09-05T06:46:47.610Z,22.34
2018-09-05T06:47:19.718Z,22.36
2018-09-05T06:47:51.868Z,22.35
2018-09-05T06:48:24.178Z,22.36
2018-09-05T06:48:56.286Z,22.37
2018-09-05T06:49:28.370Z,22.37
2018-09-05T06:50:00.470Z,22.37
2018-09-05T06:50:32.724Z,22.37
2018-09-05T06:51:05.085Z,22.37
2018-09-05T06:51:37.211Z,22.37
2018-09-05T06:52:09.302Z,22.38
2018-09-05T06:52:41.525Z,22.38
2018-09-05T06:53:13.607Z,22.37
2018-09-05T06:53:45.800Z,22.39
2018-09-05T06:54:17.900Z,22.40